Time;durP1;ratioP1;P1;durP2;ratioP2;P2;SDS_P1;SDS_P2;PMS_P1;PMS_P2;Temp;Humidity;BMP_temperature;BMP_pressure;BME280_temperature;BME280_humidity;BME280_pressure;Samples;Min_cycle;Max_cycle;Signal;HPM_P1;HPM_P2
2022/06/02 00:00:24;;;;;;;0.20;0.20;;;13.60;99.90;;;;;;5084075;28;20182;-80
2022/06/02 00:03:05;;;;;;;0.70;0.40;;;13.70;99.90;;;;;;5084410;28;20195;-80
2022/06/02 00:05:58;;;;;;;0.20;0.20;;;13.60;99.90;;;;;;5084297;28;20223;-80
2022/06/02 00:08:48;;;;;;;1.17;1.17;;;13.70;99.90;;;;;;5099467;28;20253;-80
2022/06/02 00:11:29;;;;;;;0.20;0.20;;;13.30;99.90;;;;;;5083548;28;20189;-80
2022/06/02 00:14:03;;;;;;;0.10;0.10;;;13.40;99.90;;;;;;5083126;28;20262;-80
2022/06/02 00:16:48;;;;;;;0.10;0.10;;;13.40;99.90;;;;;;5083896;28;20190;-80
2022/06/02 00:19:37;;;;;;;0.60;0.50;;;13.40;99.90;;;;;;5082954;28;20611;-80
2022/06/02 00:22:33;;;;;;;0.10;0.10;;;13.20;99.90;;;;;;5084553;28;20661;-80
2022/06/02 00:25:30;;;;;;;0.10;0.10;;;13.10;99.90;;;;;;5061786;28;20623;-80
2022/06/02 00:28:19;;;;;;;0.10;0.10;;;13.20;99.90;;;;;;5084412;28;22282;-80
2022/06/02 00:31:06;;;;;;;0.67;0.40;;;13.30;99.90;;;;;;5082148;28;20221;-80
2022/06/02 00:33:45;;;;;;;0.10;0.10;;;13.00;99.90;;;;;;5082891;28;20191;-79
2022/06/02 00:36:37;;;;;;;0.30;0.30;;;13.00;99.90;;;;;;5081848;28;20184;-80
2022/06/02 00:39:04;;;;;;;0.30;0.30;;;13.00;99.90;;;;;;5082074;28;20179;-80
2022/06/02 00:41:54;;;;;;;0.23;0.23;;;13.00;99.90;;;;;;5082337;28;21113;-80
2022/06/02 00:44:47;;;;;;;3.43;2.33;;;12.80;99.90;;;;;;5082648;28;20203;-80
2022/06/02 00:47:46;;;;;;;0.23;0.23;;;12.60;99.90;;;;;;5081208;28;20652;-80
2022/06/02 00:50:29;;;;;;;0.20;0.20;;;12.70;99.90;;;;;;5083798;28;20224;-79
2022/06/02 00:53:02;;;;;;;0.60;0.50;;;12.50;99.90;;;;;;5081497;28;20180;-80
2022/06/02 00:59:00;;;;;;;0.20;0.20;;;12.40;99.90;;;;;;5083190;28;20242;-80
2022/06/02 01:01:30;;;;;;;0.20;0.17;;;12.30;99.90;;;;;;5082429;28;20187;-80
2022/06/02 01:03:57;;;;;;;0.37;0.37;;;12.30;99.90;;;;;;5082829;28;20206;-80
2022/06/02 01:06:29;;;;;;;0.40;0.40;;;12.40;99.90;;;;;;5083478;28;20214;-80
2022/06/02 01:09:33;;;;;;;0.33;0.33;;;12.40;99.90;;;;;;5080621;28;20212;-80
2022/06/02 01:12:23;;;;;;;0.33;0.27;;;12.20;99.90;;;;;;5050010;28;20247;-80
2022/06/02 01:15:15;;;;;;;0.30;0.30;;;12.20;99.90;;;;;;5023561;28;20728;-80
2022/06/02 01:18:01;;;;;;;0.77;0.20;;;12.20;99.90;;;;;;5085450;28;20190;-79
2022/06/02 01:20:43;;;;;;;0.37;0.37;;;12.20;99.90;;;;;;5083341;28;20191;-80
2022/06/02 01:23:31;;;;;;;0.33;0.20;;;12.10;99.90;;;;;;5081072;28;20212;-80
2022/06/02 01:26:18;;;;;;;0.23;0.23;;;12.10;99.90;;;;;;5082161;28;20931;-80
2022/06/02 01:29:05;;;;;;;0.20;0.20;;;12.10;99.90;;;;;;5083543;28;20224;-79
2022/06/02 01:31:48;;;;;;;0.17;0.17;;;12.10;99.90;;;;;;5081510;28;20192;-80
2022/06/02 01:34:26;;;;;;;0.30;0.30;;;12.10;99.90;;;;;;5087769;28;20204;-79
2022/06/02 01:37:11;;;;;;;0.20;0.20;;;12.20;99.90;;;;;;5088669;28;20245;-80
2022/06/02 01:39:48;;;;;;;0.27;0.27;;;12.20;99.90;;;;;;5087070;28;21586;-81
2022/06/02 01:42:29;;;;;;;0.20;0.20;;;12.30;99.90;;;;;;5085184;28;20196;-80
2022/06/02 01:45:16;;;;;;;0.17;0.17;;;12.40;99.90;;;;;;5083821;28;20326;-79
2022/06/02 01:47:43;;;;;;;0.10;0.10;;;12.20;99.90;;;;;;5083821;28;20187;-79
2022/06/02 01:50:30;;;;;;;0.30;0.30;;;12.00;99.90;;;;;;5089163;28;20212;-80
2022/06/02 01:53:20;;;;;;;5.93;0.60;;;11.80;99.90;;;;;;5087902;28;20192;-79
2022/06/02 01:56:16;;;;;;;0.30;0.30;;;11.70;99.90;;;;;;5088274;28;20201;-80
2022/06/02 01:58:51;;;;;;;0.10;0.10;;;11.70;99.90;;;;;;5085972;28;20259;-79
2022/06/02 02:01:39;;;;;;;0.07;0.07;;;11.80;99.90;;;;;;5089175;28;20279;-80
2022/06/02 02:04:56;;;;;;;0.23;0.23;;;11.90;99.90;;;;;;5101771;28;20259;-80
2022/06/02 02:07:54;;;;;;;0.10;0.10;;;12.00;99.90;;;;;;5058965;28;20201;-79
2022/06/02 02:10:29;;;;;;;0.10;0.10;;;12.00;99.90;;;;;;5093423;28;20697;-79
2022/06/02 02:13:09;;;;;;;0.50;0.43;;;11.80;99.90;;;;;;5092258;28;20215;-79
2022/06/02 02:15:38;;;;;;;0.13;0.13;;;11.80;99.90;;;;;;5092853;28;20275;-79
2022/06/02 02:18:17;;;;;;;0.47;0.20;;;11.70;99.90;;;;;;5092881;28;20204;-79
2022/06/02 02:20:53;;;;;;;0.13;0.13;;;11.40;99.90;;;;;;5090871;28;20191;-78
2022/06/02 02:23:55;;;;;;;0.20;0.20;;;11.10;99.90;;;;;;5092496;28;20179;-79
2022/06/02 02:26:39;;;;;;;0.63;0.30;;;10.90;99.90;;;;;;5108015;27;20283;-80
2022/06/02 02:29:22;;;;;;;0.23;0.23;;;10.80;99.90;;;;;;5091002;28;20673;-80
2022/06/02 02:31:55;;;;;;;0.40;0.40;;;10.70;99.90;;;;;;5093278;28;20559;-78
2022/06/02 02:34:37;;;;;;;0.20;0.20;;;10.70;99.90;;;;;;5089841;28;20219;-79
2022/06/02 02:37:11;;;;;;;0.10;0.10;;;10.80;99.90;;;;;;5092321;28;20207;-78
2022/06/02 02:39:56;;;;;;;0.20;0.20;;;10.80;99.90;;;;;;5093790;28;20195;-78
2022/06/02 02:42:35;;;;;;;0.27;0.27;;;10.70;99.90;;;;;;5089121;28;20184;-79
2022/06/02 02:45:08;;;;;;;0.17;0.17;;;10.80;99.90;;;;;;5091867;28;20220;-79
2022/06/02 02:47:48;;;;;;;0.20;0.20;;;10.80;99.90;;;;;;5091805;28;20180;-78
2022/06/02 02:50:27;;;;;;;0.17;0.17;;;10.90;99.90;;;;;;5090253;28;20253;-79
2022/06/02 02:53:16;;;;;;;0.30;0.30;;;10.90;99.90;;;;;;5089840;28;20267;-79
2022/06/02 02:56:11;;;;;;;0.23;0.23;;;11.00;99.90;;;;;;5087943;28;20208;-79
2022/06/02 02:58:50;;;;;;;1.20;0.20;;;10.80;99.90;;;;;;5089218;28;20199;-79
2022/06/02 03:01:24;;;;;;;0.33;0.27;;;10.90;99.90;;;;;;5090859;28;20185;-79
2022/06/02 03:04:16;;;;;;;0.30;0.30;;;10.90;99.90;;;;;;5088520;28;20260;-79
2022/06/02 03:06:42;;;;;;;1.13;0.93;;;11.00;99.90;;;;;;5092144;28;20211;-78
2022/06/02 03:09:30;;;;;;;0.17;0.17;;;11.10;99.90;;;;;;5088400;28;20204;-79
2022/06/02 03:12:09;;;;;;;0.30;0.30;;;11.20;99.90;;;;;;5102424;28;20199;-78
2022/06/02 03:15:09;;;;;;;0.30;0.10;;;11.30;99.90;;;;;;5084131;28;20412;-78
2022/06/02 03:17:49;;;;;;;0.10;0.10;;;11.10;99.90;;;;;;5082907;28;20178;-78
2022/06/02 03:20:49;;;;;;;0.20;0.20;;;11.10;99.90;;;;;;5084391;28;20187;-79
2022/06/02 03:23:17;;;;;;;0.10;0.10;;;11.10;99.90;;;;;;5082601;28;20566;-79
2022/06/02 03:26:10;;;;;;;0.17;0.17;;;11.20;99.90;;;;;;5084117;28;20218;-80
2022/06/02 03:29:07;;;;;;;0.20;0.20;;;11.20;99.90;;;;;;5082567;28;20204;-78
2022/06/02 03:31:50;;;;;;;0.17;0.17;;;11.20;99.90;;;;;;5076823;28;20184;-79
2022/06/02 03:34:24;;;;;;;0.10;0.10;;;10.90;99.90;;;;;;5082314;28;20248;-78
2022/06/02 03:37:15;;;;;;;0.23;0.23;;;10.70;99.90;;;;;;5082298;28;20180;-79
2022/06/02 03:39:54;;;;;;;0.50;0.50;;;10.70;99.90;;;;;;5083929;28;20176;-79
2022/06/02 03:42:25;;;;;;;0.57;0.33;;;11.20;99.90;;;;;;5082550;28;20192;-79
2022/06/02 03:45:22;;;;;;;0.87;0.40;;;11.60;99.90;;;;;;5084145;28;20258;-79
2022/06/02 03:47:55;;;;;;;0.20;0.20;;;12.10;99.90;;;;;;5084331;28;20192;-79
2022/06/02 03:50:46;;;;;;;0.20;0.20;;;12.60;99.90;;;;;;5085301;28;20196;-79
2022/06/02 03:53:33;;;;;;;1.17;1.17;;;13.20;99.90;;;;;;5082092;28;20205;-79
2022/06/02 03:56:07;;;;;;;0.67;0.60;;;13.60;99.90;;;;;;5083751;28;20212;-78
2022/06/02 03:58:52;;;;;;;0.30;0.30;;;14.50;99.90;;;;;;5084156;28;20203;-79
2022/06/02 04:01:24;;;;;;;0.10;0.10;;;15.30;99.90;;;;;;5083623;28;20204;-78
2022/06/02 04:04:13;;;;;;;0.53;0.53;;;15.80;99.90;;;;;;5080593;28;21330;-78
2022/06/02 04:07:08;;;;;;;0.27;0.27;;;16.10;99.90;;;;;;5098343;28;20194;-79
2022/06/02 04:10:07;;;;;;;0.43;0.43;;;16.40;99.90;;;;;;5083786;28;20272;-79
2022/06/02 04:15:58;;;;;;;0.90;0.40;;;16.80;99.90;;;;;;5082342;28;20219;-79
2022/06/02 04:18:32;;;;;;;0.33;0.30;;;15.90;99.90;;;;;;5083086;28;20234;-78
2022/06/02 04:21:47;;;;;;;0.23;0.23;;;15.00;99.90;;;;;;5082003;28;20256;-79
2022/06/02 04:24:50;;;;;;;0.37;0.37;;;13.90;99.90;;;;;;5081792;28;20259;-78
2022/06/02 04:27:46;;;;;;;0.50;0.50;;;13.70;99.90;;;;;;5099766;28;20190;-79
2022/06/02 04:30:26;;;;;;;0.30;0.30;;;13.10;99.90;;;;;;5084362;28;20200;-79
2022/06/02 04:33:04;;;;;;;0.40;0.40;;;12.70;99.90;;;;;;5081893;28;20278;-79
2022/06/02 04:35:50;;;;;;;0.30;0.30;;;12.50;99.90;;;;;;5083904;28;20204;-79
2022/06/02 04:38:25;;;;;;;0.23;0.23;;;12.50;99.90;;;;;;5084125;28;20296;-79
2022/06/02 04:41:04;;;;;;;0.10;0.10;;;12.80;99.90;;;;;;5083324;28;20211;-79
2022/06/02 04:43:54;;;;;;;0.20;0.20;;;13.20;99.90;;;;;;5082511;28;20176;-79
2022/06/02 04:46:46;;;;;;;0.20;0.20;;;13.50;99.90;;;;;;5101325;28;20630;-79
2022/06/02 04:49:40;;;;;;;0.17;0.17;;;13.70;99.90;;;;;;5080656;28;20216;-80
2022/06/02 04:52:20;;;;;;;0.90;0.40;;;13.80;99.90;;;;;;5083233;28;20176;-79
2022/06/02 04:55:04;;;;;;;1.00;0.40;;;13.70;99.90;;;;;;5080152;28;20208;-79
2022/06/02 04:58:00;;;;;;;1.80;0.67;;;13.80;99.90;;;;;;5082941;28;20180;-79
2022/06/02 05:00:47;;;;;;;0.30;0.30;;;13.70;99.90;;;;;;5079246;28;20248;-79
2022/06/02 05:03:37;;;;;;;0.53;0.50;;;13.80;99.90;;;;;;5079787;28;20208;-79
2022/06/02 05:06:29;;;;;;;0.20;0.20;;;13.80;99.90;;;;;;5081641;28;20251;-79
2022/06/02 05:09:14;;;;;;;0.40;0.30;;;13.80;99.90;;;;;;5081258;28;20253;-78
2022/06/02 05:11:57;;;;;;;0.47;0.47;;;13.80;99.90;;;;;;5081216;28;20217;-79
2022/06/02 05:14:39;;;;;;;0.37;0.37;;;13.90;99.90;;;;;;5081339;28;20725;-78
2022/06/02 05:17:19;;;;;;;0.10;0.10;;;13.90;99.90;;;;;;5080247;28;20272;-79
2022/06/02 05:20:12;;;;;;;0.37;0.37;;;14.00;99.90;;;;;;5081027;28;20197;-79
2022/06/02 05:23:15;;;;;;;0.30;0.30;;;14.20;99.90;;;;;;5082105;28;20789;-80
2022/06/02 05:26:01;;;;;;;0.17;0.17;;;14.40;99.90;;;;;;5035389;28;20215;-80
2022/06/02 05:28:55;;;;;;;0.97;0.67;;;14.50;99.90;;;;;;5084634;28;20199;-80
2022/06/02 05:31:49;;;;;;;0.20;0.20;;;14.00;99.90;;;;;;5083973;28;20371;-79
2022/06/02 05:34:49;;;;;;;0.20;0.20;;;13.80;99.90;;;;;;5087164;28;20265;-81
2022/06/02 05:37:49;;;;;;;0.50;0.50;;;14.00;99.90;;;;;;5085737;28;20610;-80
2022/06/02 05:40:38;;;;;;;0.70;0.50;;;14.30;99.90;;;;;;5085361;28;20202;-80
2022/06/02 05:43:03;;;;;;;0.20;0.20;;;14.40;99.90;;;;;;5085988;28;20194;-80
2022/06/02 05:46:03;;;;;;;0.83;0.60;;;14.70;99.90;;;;;;5087343;28;20263;-81
2022/06/02 05:49:07;;;;;;;0.60;0.40;;;14.50;99.90;;;;;;5107180;28;20184;-79
2022/06/02 05:51:38;;;;;;;0.50;0.50;;;14.40;99.90;;;;;;5086868;28;20203;-80
2022/06/02 05:54:20;;;;;;;0.50;0.37;;;14.50;99.90;;;;;;5086508;28;20264;-80
2022/06/02 05:56:55;;;;;;;0.30;0.30;;;14.50;99.90;;;;;;5089555;28;20197;-80
2022/06/02 05:59:50;;;;;;;0.20;0.20;;;14.70;99.90;;;;;;5093561;28;20682;-82
2022/06/02 06:02:22;;;;;;;2.80;1.10;;;14.70;99.90;;;;;;5094514;28;20184;-82
2022/06/02 06:05:02;;;;;;;0.57;0.50;;;14.70;99.90;;;;;;5095138;28;20375;-82
2022/06/02 06:07:52;;;;;;;0.40;0.40;;;14.80;99.90;;;;;;5093540;28;20201;-82
2022/06/02 06:11:02;;;;;;;0.43;0.43;;;15.30;99.90;;;;;;5095914;28;20617;-83
2022/06/02 06:13:52;;;;;;;0.37;0.37;;;15.50;99.90;;;;;;4994228;28;20222;-82
2022/06/02 06:16:27;;;;;;;0.40;0.40;;;15.80;99.90;;;;;;5094603;28;20186;-82
2022/06/02 06:19:14;;;;;;;0.33;0.33;;;15.90;99.90;;;;;;5092934;28;20195;-82
2022/06/02 06:22:17;;;;;;;1.43;0.87;;;16.20;99.90;;;;;;5095429;28;20246;-80
2022/06/02 06:25:00;;;;;;;0.30;0.30;;;16.40;99.90;;;;;;5094514;28;20215;-83
2022/06/02 06:27:34;;;;;;;1.73;1.63;;;16.50;99.90;;;;;;5109965;28;20187;-82
2022/06/02 06:30:18;;;;;;;0.27;0.27;;;16.80;99.90;;;;;;5086205;28;20688;-82
2022/06/02 06:33:08;;;;;;;0.53;0.53;;;17.00;99.90;;;;;;5082164;28;20220;-80
2022/06/02 06:35:57;;;;;;;0.57;0.57;;;17.20;99.90;;;;;;5081054;28;20215;-79
2022/06/02 06:39:01;;;;;;;0.53;0.53;;;17.40;99.90;;;;;;5074963;28;20188;-79
2022/06/02 06:41:51;;;;;;;0.50;0.50;;;17.50;99.90;;;;;;5028760;28;20196;-80
2022/06/02 06:44:33;;;;;;;0.30;0.30;;;17.10;99.90;;;;;;5081093;28;20208;-79
2022/06/02 06:47:21;;;;;;;0.57;0.57;;;17.50;99.90;;;;;;5080143;28;20279;-82
2022/06/02 06:50:09;;;;;;;0.43;0.43;;;17.70;99.90;;;;;;5082071;28;20208;-81
2022/06/02 06:52:50;;;;;;;0.30;0.30;;;17.90;99.90;;;;;;5085360;28;20537;-80
2022/06/02 06:55:39;;;;;;;0.37;0.37;;;18.00;99.90;;;;;;5083067;28;20335;-82
2022/06/02 06:58:31;;;;;;;0.50;0.40;;;18.30;99.90;;;;;;5083571;28;20184;-80
2022/06/02 07:01:14;;;;;;;0.40;0.40;;;18.70;99.90;;;;;;5078846;28;20176;-81
2022/06/02 07:04:25;;;;;;;1.27;1.17;;;18.70;99.90;;;;;;5082903;28;20237;-80
2022/06/02 07:07:03;;;;;;;0.77;0.77;;;18.10;99.90;;;;;;5083610;28;20668;-80
2022/06/02 07:09:37;;;;;;;1.10;0.90;;;18.20;99.90;;;;;;5083849;28;20216;-80
2022/06/02 07:15:40;;;;;;;1.07;1.00;;;17.50;99.90;;;;;;5083688;28;20211;-80
2022/06/02 07:18:15;;;;;;;0.60;0.60;;;18.00;99.90;;;;;;5081702;28;20192;-80
2022/06/02 07:20:59;;;;;;;0.90;0.60;;;18.60;99.90;;;;;;5083616;28;20180;-80
2022/06/02 07:24:08;;;;;;;0.63;0.63;;;18.70;99.90;;;;;;5081558;28;20184;-82
2022/06/02 07:26:51;;;;;;;0.90;0.90;;;19.10;99.90;;;;;;4995436;28;20187;-80
2022/06/02 07:29:59;;;;;;;1.07;0.97;;;17.80;99.90;;;;;;4975971;28;20204;-82
2022/06/02 07:32:54;;;;;;;1.47;0.93;;;17.10;99.90;;;;;;5066666;28;20184;-80
2022/06/02 07:36:01;;;;;;;2.43;0.60;;;18.00;99.90;;;;;;5083834;28;21311;-80
2022/06/02 07:38:51;;;;;;;1.03;0.50;;;18.50;99.90;;;;;;5083268;28;20255;-79
2022/06/02 07:41:23;;;;;;;1.33;1.00;;;18.60;99.90;;;;;;5082544;28;20180;-81
2022/06/02 07:44:00;;;;;;;0.33;0.33;;;19.20;99.90;;;;;;5083490;28;20310;-79
2022/06/02 07:46:43;;;;;;;0.63;0.63;;;19.30;99.90;;;;;;5083750;28;20191;-82
2022/06/02 07:49:37;;;;;;;0.73;0.67;;;19.50;99.90;;;;;;5084423;28;20233;-79
2022/06/02 07:52:22;;;;;;;1.07;0.97;;;19.10;99.90;;;;;;5081934;28;20185;-80
2022/06/02 07:55:04;;;;;;;1.00;0.67;;;18.30;99.90;;;;;;5099648;28;20244;-80
2022/06/02 07:58:02;;;;;;;0.40;0.40;;;18.60;99.90;;;;;;5086063;28;20255;-80
2022/06/02 08:00:33;;;;;;;1.20;0.60;;;19.30;99.90;;;;;;5085502;28;21031;-82
2022/06/02 08:03:22;;;;;;;0.30;0.30;;;19.30;99.90;;;;;;5087843;28;20176;-80
2022/06/02 08:05:52;;;;;;;0.90;0.40;;;19.60;99.90;;;;;;5085322;28;20205;-82
2022/06/02 08:08:52;;;;;;;0.83;0.83;;;19.30;99.90;;;;;;5084601;28;20183;-80
2022/06/02 08:11:41;;;;;;;0.53;0.53;;;18.60;99.90;;;;;;5083670;28;20215;-80
2022/06/02 08:14:17;;;;;;;1.03;0.87;;;18.70;99.90;;;;;;5084670;28;20232;-81
2022/06/02 08:16:51;;;;;;;0.30;0.30;;;18.90;99.90;;;;;;5082167;28;20219;-80
2022/06/02 08:19:29;;;;;;;0.50;0.50;;;19.10;99.90;;;;;;5082391;28;20191;-81
2022/06/02 08:21:59;;;;;;;0.80;0.77;;;19.10;99.90;;;;;;5082806;28;20191;-80
2022/06/02 08:24:33;;;;;;;0.50;0.50;;;19.20;99.90;;;;;;5083853;28;20205;-80
2022/06/02 08:27:26;;;;;;;0.30;0.30;;;19.20;99.90;;;;;;5082212;28;20253;-79
2022/06/02 08:30:01;;;;;;;0.80;0.80;;;19.30;99.90;;;;;;5083031;28;20689;-79
2022/06/02 08:32:41;;;;;;;0.53;0.53;;;18.60;99.90;;;;;;5084066;28;20260;-81
2022/06/02 08:35:44;;;;;;;0.40;0.40;;;19.20;99.90;;;;;;5082914;28;20300;-80
2022/06/02 08:38:37;;;;;;;0.50;0.50;;;20.10;99.90;;;;;;5082826;28;20176;-83
2022/06/02 08:41:36;;;;;;;1.77;1.40;;;20.40;99.90;;;;;;5081457;28;20722;-81
2022/06/02 08:44:23;;;;;;;0.33;0.33;;;20.40;99.90;;;;;;5082250;28;20214;-80
2022/06/02 08:47:06;;;;;;;0.50;0.50;;;20.40;99.90;;;;;;5084194;28;20185;-80
2022/06/02 08:49:37;;;;;;;0.87;0.87;;;20.60;99.90;;;;;;5085928;28;20614;-80
2022/06/02 08:52:36;;;;;;;0.60;0.43;;;20.50;99.90;;;;;;5083614;28;20196;-81
2022/06/02 08:55:59;;;;;;;1.03;0.53;;;20.10;99.90;;;;;;5084353;28;20581;-80
2022/06/02 08:58:39;;;;;;;1.57;1.47;;;20.70;99.90;;;;;;5059823;28;20570;-80
2022/06/02 09:01:13;;;;;;;0.60;0.60;;;18.90;99.90;;;;;;5084126;28;20357;-80
2022/06/02 09:07:13;;;;;;;1.57;1.47;;;19.70;99.90;;;;;;5052588;28;20531;-81
2022/06/02 09:10:23;;;;;;;0.33;0.33;;;19.20;99.90;;;;;;5050748;28;20186;-81
2022/06/02 09:12:54;;;;;;;1.00;0.90;;;19.40;99.90;;;;;;5060191;28;20186;-81
2022/06/02 09:15:41;;;;;;;0.60;0.50;;;19.80;99.90;;;;;;5056185;28;20225;-80
2022/06/02 09:18:14;;;;;;;0.87;0.70;;;19.50;99.90;;;;;;5050614;28;20382;-80
2022/06/02 09:20:58;;;;;;;1.03;0.50;;;19.10;99.90;;;;;;5048036;28;20188;-80
2022/06/02 09:23:55;;;;;;;1.37;0.67;;;18.90;99.90;;;;;;5048371;28;20190;-81
2022/06/02 09:26:59;;;;;;;0.93;0.90;;;19.30;99.90;;;;;;5051906;28;20720;-81
2022/06/02 09:29:29;;;;;;;0.60;0.40;;;19.20;99.90;;;;;;5049277;28;20189;-81
2022/06/02 09:32:02;;;;;;;0.53;0.53;;;19.20;99.90;;;;;;5048910;28;20170;-80
2022/06/02 09:34:51;;;;;;;0.43;0.43;;;20.10;99.90;;;;;;5050115;28;20211;-80
2022/06/02 09:37:38;;;;;;;0.33;0.33;;;20.40;99.90;;;;;;5049971;28;20268;-81
2022/06/02 09:40:46;;;;;;;0.57;0.57;;;20.30;99.90;;;;;;5048488;28;20180;-81
2022/06/02 09:43:25;;;;;;;0.40;0.40;;;20.40;99.90;;;;;;5047764;28;20187;-80
2022/06/02 09:46:09;;;;;;;2.63;1.80;;;19.80;99.90;;;;;;5065622;28;20629;-80
2022/06/02 09:49:06;;;;;;;0.23;0.23;;;19.90;99.90;;;;;;5050636;28;20216;-80
2022/06/02 09:52:11;;;;;;;0.30;0.30;;;20.30;99.90;;;;;;5049964;28;20667;-81
2022/06/02 09:55:10;;;;;;;0.80;0.80;;;20.80;99.90;;;;;;5020725;28;20201;-81
2022/06/02 09:58:08;;;;;;;0.23;0.23;;;21.10;99.90;;;;;;5015482;28;20170;-80
2022/06/02 10:00:44;;;;;;;0.50;0.50;;;21.60;99.90;;;;;;5009644;28;20272;-80
2022/06/02 10:03:38;;;;;;;0.30;0.30;;;22.00;99.90;;;;;;5048759;28;20184;-81
2022/06/02 10:06:45;;;;;;;0.93;0.40;;;21.70;99.90;;;;;;5049091;28;20213;-82
2022/06/02 10:09:52;;;;;;;0.33;0.33;;;22.00;99.90;;;;;;5041810;28;20205;-79
2022/06/02 10:12:58;;;;;;;0.37;0.37;;;21.90;99.90;;;;;;5046529;28;20213;-80
2022/06/02 10:15:48;;;;;;;0.50;0.50;;;21.50;99.90;;;;;;5049938;28;20206;-81
2022/06/02 10:18:30;;;;;;;0.50;0.50;;;21.30;99.90;;;;;;5041734;28;20188;-81
2022/06/02 10:21:24;;;;;;;0.73;0.50;;;21.20;99.90;;;;;;5040820;28;20178;-79
2022/06/02 10:24:08;;;;;;;0.77;0.50;;;21.30;99.90;;;;;;5039249;28;20192;-80
2022/06/02 10:27:01;;;;;;;0.50;0.50;;;21.30;99.90;;;;;;5038751;28;20225;-80
2022/06/02 10:30:11;;;;;;;0.40;0.40;;;21.40;99.90;;;;;;5040286;28;20185;-80
2022/06/02 10:33:05;;;;;;;0.60;0.60;;;21.60;99.90;;;;;;5024423;28;20186;-81
2022/06/02 10:36:09;;;;;;;0.97;0.90;;;21.80;99.90;;;;;;5037276;28;20212;-79
2022/06/02 10:39:04;;;;;;;0.87;0.40;;;21.20;99.90;;;;;;5036536;28;20265;-79
2022/06/02 10:42:12;;;;;;;0.43;0.43;;;21.70;99.90;;;;;;5039400;28;20187;-81
2022/06/02 10:45:16;;;;;;;0.30;0.30;;;21.50;99.90;;;;;;5021393;28;20252;-80
2022/06/02 10:48:01;;;;;;;0.57;0.57;;;21.60;99.90;;;;;;5036956;28;20191;-79
2022/06/02 10:50:50;;;;;;;0.37;0.37;;;22.20;99.90;;;;;;5035034;28;20277;-79
2022/06/02 10:53:52;;;;;;;0.63;0.63;;;22.70;99.90;;;;;;5036483;28;20175;-80
2022/06/02 10:56:56;;;;;;;0.23;0.23;;;22.70;99.90;;;;;;5035361;28;20190;-80
2022/06/02 10:59:54;;;;;;;0.37;0.37;;;22.60;99.90;;;;;;5036779;28;20663;-80
2022/06/02 11:03:08;;;;;;;0.20;0.20;;;22.80;99.90;;;;;;5033590;28;20208;-80
2022/06/02 11:05:55;;;;;;;0.60;0.60;;;23.20;99.90;;;;;;5035326;28;20213;-79
2022/06/02 11:08:59;;;;;;;0.53;0.43;;;22.50;99.90;;;;;;5035264;28;20669;-80
2022/06/02 11:11:43;;;;;;;0.40;0.40;;;22.80;99.90;;;;;;5033199;28;20229;-80
2022/06/02 11:14:34;;;;;;;0.63;0.63;;;23.00;99.90;;;;;;5033780;28;20205;-79
2022/06/02 11:17:20;;;;;;;0.40;0.40;;;23.00;99.90;;;;;;5036612;28;20204;-80
2022/06/02 11:20:16;;;;;;;0.73;0.73;;;22.80;99.90;;;;;;5035265;28;20173;-79
2022/06/02 11:23:03;;;;;;;0.60;0.60;;;22.20;99.90;;;;;;5037033;28;20241;-80
2022/06/02 11:26:17;;;;;;;1.03;0.53;;;22.70;99.90;;;;;;5035540;28;20304;-80
2022/06/02 11:29:01;;;;;;;0.33;0.33;;;22.80;99.90;;;;;;5002552;28;20202;-81
2022/06/02 11:31:35;;;;;;;0.60;0.60;;;23.50;99.90;;;;;;5035725;28;20235;-80
2022/06/02 11:34:16;;;;;;;0.70;0.70;;;23.40;99.90;;;;;;5033727;28;20946;-80
2022/06/02 11:37:14;;;;;;;0.57;0.57;;;23.00;99.90;;;;;;5036666;28;20231;-80
2022/06/02 11:39:54;;;;;;;0.87;0.60;;;22.60;99.90;;;;;;5036431;28;20194;-80
2022/06/02 11:42:34;;;;;;;0.23;0.23;;;23.30;99.90;;;;;;5034956;28;20196;-80
2022/06/02 11:45:10;;;;;;;0.57;0.57;;;23.20;99.90;;;;;;5035987;28;20210;-80
2022/06/02 11:48:03;;;;;;;0.30;0.30;;;22.00;99.90;;;;;;5035268;28;20176;-80
2022/06/02 11:51:04;;;;;;;1.43;1.33;;;22.10;99.90;;;;;;5034335;28;20280;-80
2022/06/02 11:53:53;;;;;;;0.20;0.20;;;22.10;99.90;;;;;;5032271;28;20181;-80
2022/06/02 11:56:34;;;;;;;0.53;0.30;;;22.70;99.90;;;;;;5034367;28;20181;-80
2022/06/02 11:59:48;;;;;;;0.40;0.40;;;21.50;99.90;;;;;;5033737;28;20185;-81
2022/06/02 12:02:39;;;;;;;0.50;0.40;;;21.60;99.90;;;;;;5032512;28;20544;-81
2022/06/02 12:05:12;;;;;;;0.70;0.70;;;21.00;99.90;;;;;;5034844;28;20214;-80
2022/06/02 12:08:06;;;;;;;0.50;0.50;;;21.40;99.90;;;;;;5030956;28;20346;-80
2022/06/02 12:10:34;;;;;;;0.50;0.50;;;21.30;99.90;;;;;;5032857;28;20212;-81
2022/06/02 12:13:21;;;;;;;0.30;0.30;;;21.80;99.90;;;;;;5036123;28;20178;-80
2022/06/02 12:16:26;;;;;;;1.13;0.80;;;22.30;99.90;;;;;;5037434;28;20209;-80
2022/06/02 12:19:20;;;;;;;0.47;0.47;;;21.80;99.90;;;;;;5028619;28;20264;-80
2022/06/02 12:22:19;;;;;;;0.40;0.40;;;21.80;99.90;;;;;;5025694;28;20198;-80
2022/06/02 12:24:58;;;;;;;0.60;0.60;;;21.50;99.90;;;;;;5034460;28;20265;-81
2022/06/02 12:27:39;;;;;;;0.73;0.40;;;21.20;99.90;;;;;;5035691;28;20186;-80
2022/06/02 12:30:42;;;;;;;0.40;0.40;;;21.30;99.90;;;;;;5030785;28;20208;-80
2022/06/02 12:33:19;;;;;;;0.30;0.30;;;21.60;99.90;;;;;;5036012;28;20189;-80
2022/06/02 12:36:17;;;;;;;0.50;0.50;;;22.40;99.90;;;;;;5039898;28;20240;-80
2022/06/02 12:39:08;;;;;;;0.63;0.23;;;22.90;99.90;;;;;;5036546;28;20194;-80
2022/06/02 12:42:13;;;;;;;1.00;1.00;;;23.40;99.90;;;;;;5037276;28;20196;-80
2022/06/02 12:44:53;;;;;;;0.80;0.50;;;23.70;99.90;;;;;;5035579;28;20214;-80
2022/06/02 12:47:43;;;;;;;0.47;0.30;;;23.30;99.90;;;;;;5033985;28;20228;-81
2022/06/02 12:50:47;;;;;;;0.30;0.30;;;23.10;99.90;;;;;;5035028;28;20175;-80
2022/06/02 12:53:52;;;;;;;4.00;0.40;;;23.50;99.90;;;;;;5006223;28;20219;-81
2022/06/02 12:56:25;;;;;;;0.90;0.90;;;23.80;99.90;;;;;;5035100;28;20174;-80
2022/06/02 12:59:34;;;;;;;0.40;0.40;;;22.90;99.90;;;;;;5037725;28;20693;-80
2022/06/02 13:02:09;;;;;;;0.40;0.40;;;22.70;99.90;;;;;;5035944;28;20186;-80
2022/06/02 13:04:48;;;;;;;0.50;0.50;;;23.50;99.90;;;;;;5036873;28;20206;-81
2022/06/02 13:07:29;;;;;;;0.20;0.20;;;23.30;99.90;;;;;;5036332;28;20239;-81
2022/06/02 13:10:13;;;;;;;0.37;0.33;;;22.60;99.90;;;;;;5037970;28;20196;-81
2022/06/02 13:13:01;;;;;;;0.67;0.67;;;22.40;99.90;;;;;;5036183;28;20185;-81
2022/06/02 13:16:06;;;;;;;0.73;0.73;;;21.80;99.90;;;;;;5036227;28;20238;-81
2022/06/02 13:19:04;;;;;;;0.30;0.30;;;22.20;99.90;;;;;;5036637;28;20182;-81
2022/06/02 13:22:02;;;;;;;0.20;0.20;;;22.90;99.90;;;;;;5037833;28;20212;-81
2022/06/02 13:24:40;;;;;;;0.70;0.50;;;23.60;99.90;;;;;;5035265;28;20800;-81
2022/06/02 13:27:34;;;;;;;0.30;0.30;;;23.30;99.90;;;;;;5035570;28;20264;-81
2022/06/02 13:30:32;;;;;;;0.40;0.40;;;23.10;99.90;;;;;;5034086;28;20558;-82
2022/06/02 13:33:22;;;;;;;0.30;0.30;;;22.30;99.90;;;;;;5035730;28;20272;-80
2022/06/02 13:36:18;;;;;;;0.43;0.43;;;22.50;99.90;;;;;;5033337;28;20588;-81
2022/06/02 13:39:15;;;;;;;0.30;0.30;;;22.90;99.90;;;;;;5035058;28;20209;-81
2022/06/02 13:42:05;;;;;;;0.43;0.43;;;22.70;99.90;;;;;;5033872;28;20189;-81
2022/06/02 13:44:59;;;;;;;1.03;0.20;;;23.00;99.90;;;;;;5035274;28;20737;-81
2022/06/02 13:48:21;;;;;;;5.93;0.60;;;23.20;99.90;;;;;;5029005;28;20183;-81
2022/06/02 13:51:06;;;;;;;0.30;0.30;;;22.50;99.90;;;;;;5025372;28;20195;-81
2022/06/02 13:57:30;;;;;;;0.73;0.40;;;22.70;99.90;;;;;;5039340;28;20674;-81
2022/06/02 13:59:53;;;;;;;0.30;0.13;;;23.80;99.90;;;;;;5038239;28;20177;-81
2022/06/02 14:02:43;;;;;;;0.17;0.17;;;24.30;99.90;;;;;;5039069;28;20174;-80
2022/06/02 14:05:38;;;;;;;0.77;0.30;;;24.70;99.90;;;;;;5036711;28;20706;-80
2022/06/02 14:08:19;;;;;;;0.60;0.30;;;24.90;99.90;;;;;;5038558;28;20213;-81
2022/06/02 14:11:08;;;;;;;0.20;0.20;;;25.00;99.90;;;;;;5038165;28;20182;-80
2022/06/02 14:13:44;;;;;;;0.30;0.30;;;24.40;99.90;;;;;;5037738;28;20178;-81
2022/06/02 14:16:41;;;;;;;0.30;0.30;;;24.30;99.90;;;;;;5033047;28;20178;-81
2022/06/02 14:19:23;;;;;;;0.30;0.30;;;22.60;99.90;;;;;;5033956;28;20202;-81
2022/06/02 14:22:11;;;;;;;0.60;0.30;;;22.40;99.90;;;;;;5036213;28;20183;-81
2022/06/02 14:24:46;;;;;;;0.20;0.20;;;22.50;99.90;;;;;;5034852;28;20687;-81
2022/06/02 14:27:11;;;;;;;0.20;0.20;;;22.60;99.90;;;;;;5036089;28;20252;-81
2022/06/02 14:29:40;;;;;;;0.20;0.20;;;22.20;99.90;;;;;;5035902;28;20206;-81
2022/06/02 14:32:09;;;;;;;0.20;0.20;;;22.90;99.90;;;;;;5038526;28;20206;-80
2022/06/02 14:35:05;;;;;;;0.27;0.27;;;23.30;99.90;;;;;;5037424;28;20202;-80
2022/06/02 14:37:41;;;;;;;0.40;0.40;;;23.50;99.90;;;;;;5039383;28;20638;-82
2022/06/02 14:40:11;;;;;;;0.10;0.10;;;23.10;99.90;;;;;;5039676;28;20181;-81
2022/06/02 14:43:19;;;;;;;0.23;0.23;;;23.00;99.90;;;;;;5037455;28;20178;-81
2022/06/02 14:45:53;;;;;;;0.23;0.23;;;22.50;99.90;;;;;;5028770;28;20221;-82
2022/06/02 14:48:46;;;;;;;0.30;0.30;;;22.40;99.90;;;;;;5036820;28;20733;-82